createdAt,value
2022-11-05T00:09:36.392Z,1016
2022-11-05T00:40:38.422Z,1016
2022-11-05T01:11:45.018Z,1016
2022-11-05T01:42:47.273Z,1016
2022-11-05T02:13:54.271Z,1017
2022-11-05T02:45:00.332Z,1017
2022-11-05T03:16:04.815Z,1017
2022-11-05T03:47:11.063Z,1017
2022-11-05T04:18:14.914Z,1018
2022-11-05T04:49:23.244Z,1018
2022-11-05T05:20:32.011Z,1018
2022-11-05T05:51:35.685Z,1019
2022-11-05T06:22:45.267Z,1019
2022-11-05T06:53:53.880Z,1020
2022-11-05T07:24:58.503Z,1020
2022-11-05T07:56:06.098Z,1021
2022-11-05T08:27:15.672Z,1021
2022-11-05T08:58:24.027Z,1021
2022-11-05T09:29:27.775Z,1021
2022-11-05T10:00:31.609Z,1022
2022-11-05T10:31:39.035Z,1022
2022-11-05T11:02:41.931Z,1022
2022-11-05T11:33:47.299Z,1022
2022-11-05T12:04:49.818Z,1022
2022-11-05T12:35:54.881Z,1022
2022-11-05T13:07:03.200Z,1022
2022-11-05T13:38:11.634Z,1022
2022-11-05T14:09:16.590Z,1022
2022-11-05T14:40:21.110Z,1022
2022-11-05T15:11:26.652Z,1022
2022-11-05T15:42:29.912Z,1022
2022-11-05T16:13:39.133Z,1022
2022-11-05T16:44:41.213Z,1022
2022-11-05T17:15:46.937Z,1022
2022-11-05T17:46:50.660Z,1022
2022-11-05T18:17:56.579Z,1023
2022-11-05T18:49:05.169Z,1023
2022-11-05T19:20:13.965Z,1023
2022-11-05T19:51:23.451Z,1023
2022-11-05T20:22:26.778Z,1023
2022-11-05T20:53:29.157Z,1023
2022-11-05T21:24:37.185Z,1023
2022-11-05T21:55:40.854Z,1023
2022-11-05T22:26:48.348Z,1023
2022-11-05T22:57:58.200Z,1023
2022-11-05T23:29:00.663Z,1022
